Time;durP1;ratioP1;P1;durP2;ratioP2;P2;SDS_P1;SDS_P2;PMS_P1;PMS_P2;Temp;Humidity;BMP_temperature;BMP_pressure;BME280_temperature;BME280_humidity;BME280_pressure;Samples;Min_cycle;Max_cycle;Signal;HPM_P1;HPM_P2
2023/03/16 00:02:13;;;;;;;0.60;0.60;;;;;;;9.71;82.68;98329.00;5036107;28;20250;-62
2023/03/16 00:04:40;;;;;;;3.50;1.33;;;;;;;9.67;82.92;98322.34;5040930;28;20217;-63
2023/03/16 00:07:08;;;;;;;0.70;0.70;;;;;;;9.65;83.26;98329.28;5041434;28;20553;-63
2023/03/16 00:09:39;;;;;;;0.57;0.57;;;;;;;9.63;82.87;98331.88;5038840;28;20197;-63
2023/03/16 00:12:14;;;;;;;1.30;1.20;;;;;;;9.65;83.68;98329.28;5045594;28;20665;-63
2023/03/16 00:14:42;;;;;;;0.57;0.57;;;;;;;9.67;84.04;98332.59;5040482;28;20288;-63
2023/03/16 00:17:17;;;;;;;0.60;0.60;;;;;;;9.64;84.70;98330.16;5043155;28;20196;-63
2023/03/16 00:19:46;;;;;;;0.70;0.70;;;;;;;9.66;85.58;98328.38;5039095;28;20197;-63
2023/03/16 00:22:13;;;;;;;0.60;0.60;;;;;;;9.65;86.03;98326.72;5042703;28;20691;-63
2023/03/16 00:24:42;;;;;;;0.60;0.60;;;;;;;9.65;87.17;98331.84;5038576;28;20601;-63
2023/03/16 00:27:13;;;;;;;0.40;0.40;;;;;;;9.67;88.74;98335.97;5023790;28;20673;-63
2023/03/16 00:29:45;;;;;;;0.40;0.40;;;;;;;9.72;89.30;98328.13;5041673;28;20235;-63
2023/03/16 00:32:15;;;;;;;0.50;0.50;;;;;;;9.64;90.37;98314.81;5041069;28;20233;-63
2023/03/16 00:34:42;;;;;;;0.60;0.60;;;;;;;9.75;90.80;98323.69;5038674;28;20283;-64
2023/03/16 00:37:09;;;;;;;0.60;0.60;;;;;;;9.82;90.57;98324.25;5036650;28;20196;-63
2023/03/16 00:39:35;;;;;;;0.60;0.60;;;;;;;9.80;91.32;98320.91;5039013;28;20584;-62
2023/03/16 00:42:03;;;;;;;0.50;0.50;;;;;;;9.84;91.55;98327.56;5041725;28;20209;-62
2023/03/16 00:44:31;;;;;;;0.70;0.70;;;;;;;9.84;91.72;98319.88;5036002;28;20578;-63
2023/03/16 00:46:58;;;;;;;0.60;0.60;;;;;;;9.83;91.85;98325.91;5046580;28;20204;-63
2023/03/16 00:49:25;;;;;;;0.60;0.60;;;;;;;9.88;91.96;98323.97;5037713;28;20202;-62
2023/03/16 00:51:51;;;;;;;0.60;0.60;;;;;;;9.89;92.10;98321.34;5039525;28;20201;-63
2023/03/16 00:54:18;;;;;;;0.60;0.60;;;;;;;9.86;92.63;98320.63;5042111;28;20664;-63
2023/03/16 00:56:45;;;;;;;1.40;0.87;;;;;;;9.91;92.96;98334.09;5039103;28;20737;-64
2023/03/16 00:59:12;;;;;;;0.57;0.57;;;;;;;9.89;93.09;98333.28;5040456;28;20219;-63
2023/03/16 01:01:40;;;;;;;0.50;0.50;;;;;;;9.85;93.72;98324.13;5037623;28;20577;-63
2023/03/16 01:04:08;;;;;;;0.50;0.50;;;;;;;9.87;94.16;98335.94;5042778;28;20223;-63
2023/03/16 01:06:35;;;;;;;0.40;0.40;;;;;;;9.91;94.77;98339.19;5036036;28;20204;-63
2023/03/16 01:09:04;;;;;;;0.53;0.53;;;;;;;9.90;95.77;98353.72;5041220;28;20250;-63
2023/03/16 01:11:33;;;;;;;0.60;0.60;;;;;;;9.92;95.84;98345.97;5050629;28;20207;-63
2023/03/16 01:14:00;;;;;;;0.50;0.50;;;;;;;9.92;96.66;98348.53;5035457;28;20203;-63
2023/03/16 01:16:28;;;;;;;0.60;0.60;;;;;;;9.88;97.04;98350.41;5032843;28;20197;-63
2023/03/16 01:18:56;;;;;;;0.60;0.60;;;;;;;9.87;97.61;98347.91;5039364;28;20224;-63
2023/03/16 01:21:23;;;;;;;0.40;0.40;;;;;;;9.89;98.30;98351.22;5036508;28;20197;-62
2023/03/16 01:23:52;;;;;;;1.00;1.00;;;;;;;9.87;98.24;98355.59;5045897;28;20223;-63
2023/03/16 01:26:19;;;;;;;0.50;0.50;;;;;;;9.84;97.19;98354.00;5037866;28;20623;-63
2023/03/16 01:28:47;;;;;;;0.40;0.40;;;;;;;9.78;96.37;98367.06;5046849;28;20212;-63
2023/03/16 01:31:15;;;;;;;0.80;0.80;;;;;;;9.70;95.39;98350.34;5051879;28;20220;-68
2023/03/16 01:33:43;;;;;;;0.40;0.40;;;;;;;9.67;95.39;98371.81;5053785;28;20710;-68
2023/03/16 01:36:13;;;;;;;0.40;0.40;;;;;;;9.60;95.67;98369.56;5049565;28;20255;-68
2023/03/16 01:38:41;;;;;;;0.50;0.50;;;;;;;9.55;95.50;98372.34;5034246;28;20205;-69
2023/03/16 01:41:08;;;;;;;0.43;0.43;;;;;;;9.47;94.75;98362.41;5033655;28;20198;-68
2023/03/16 01:43:37;;;;;;;0.63;0.63;;;;;;;9.43;94.54;98375.41;5033599;28;20221;-69
2023/03/16 01:46:16;;;;;;;0.70;0.70;;;;;;;9.33;95.29;98369.84;5033535;28;20201;-68
2023/03/16 01:48:47;;;;;;;0.50;0.50;;;;;;;9.22;95.08;98354.09;5049525;28;20203;-68
2023/03/16 01:51:20;;;;;;;0.50;0.50;;;;;;;9.22;94.77;98371.16;5053540;28;20669;-69
2023/03/16 01:53:48;;;;;;;0.40;0.40;;;;;;;9.13;94.11;98384.34;5053893;28;20197;-65
2023/03/16 01:56:22;;;;;;;0.50;0.50;;;;;;;9.15;94.56;98379.97;5043359;28;20209;-65
2023/03/16 01:58:50;;;;;;;0.50;0.50;;;;;;;9.07;94.41;98374.34;5034898;28;20259;-65
2023/03/16 02:01:17;;;;;;;0.70;0.70;;;;;;;9.01;93.82;98380.56;5035869;28;20283;-66
2023/03/16 02:03:44;;;;;;;0.60;0.60;;;;;;;8.99;93.19;98384.88;5042826;28;20247;-65
2023/03/16 02:06:15;;;;;;;0.50;0.50;;;;;;;8.93;93.43;98387.69;5044719;28;20196;-65
2023/03/16 02:08:45;;;;;;;0.57;0.57;;;;;;;8.79;92.29;98384.81;5054535;28;20212;-65
2023/03/16 02:11:16;;;;;;;0.53;0.53;;;;;;;8.77;92.12;98401.94;5052832;28;20211;-65
2023/03/16 02:13:44;;;;;;;0.53;0.53;;;;;;;8.73;91.98;98396.13;5041562;28;20208;-65
2023/03/16 02:16:13;;;;;;;0.50;0.50;;;;;;;8.73;91.46;98408.06;5050440;28;20201;-65
2023/03/16 02:18:45;;;;;;;0.63;0.63;;;;;;;8.74;91.46;98412.28;5035748;28;20219;-65
2023/03/16 02:21:19;;;;;;;0.50;0.50;;;;;;;8.69;91.70;98414.22;5054213;28;20205;-65
2023/03/16 02:23:49;;;;;;;0.50;0.50;;;;;;;8.65;91.73;98415.22;5044445;28;20224;-64
2023/03/16 02:26:25;;;;;;;0.50;0.50;;;;;;;8.58;91.56;98403.56;5041641;28;20266;-65
2023/03/16 02:29:02;;;;;;;0.50;0.50;;;;;;;8.65;91.33;98422.88;5054065;28;20231;-65
2023/03/16 02:31:32;;;;;;;0.77;0.77;;;;;;;8.63;90.84;98424.63;5050997;28;20719;-65
2023/03/16 02:34:00;;;;;;;0.57;0.57;;;;;;;8.64;91.10;98426.31;5045198;28;20259;-65
2023/03/16 02:36:28;;;;;;;0.50;0.50;;;;;;;8.65;90.43;98427.97;5045145;28;20673;-65
2023/03/16 02:38:55;;;;;;;0.50;0.50;;;;;;;8.66;90.33;98425.34;5034206;28;20581;-65
2023/03/16 02:41:22;;;;;;;0.67;0.67;;;;;;;8.64;90.21;98429.69;5038699;28;20204;-65
2023/03/16 02:43:52;;;;;;;0.50;0.50;;;;;;;8.56;90.75;98429.16;5053904;28;20592;-65
2023/03/16 02:46:21;;;;;;;0.50;0.50;;;;;;;8.55;90.03;98434.31;5053735;28;20208;-65
2023/03/16 02:48:55;;;;;;;0.70;0.70;;;;;;;8.36;90.29;98416.28;5044067;28;20673;-65
2023/03/16 02:51:22;;;;;;;0.50;0.50;;;;;;;8.44;90.68;98440.66;5033882;28;20673;-65
2023/03/16 02:53:49;;;;;;;0.63;0.63;;;;;;;8.44;90.12;98440.66;5033866;28;20677;-65
2023/03/16 02:56:15;;;;;;;0.50;0.50;;;;;;;8.43;90.52;98441.53;5033782;28;20201;-65
2023/03/16 03:02:03;;;;;;;0.50;0.50;;;;;;;8.37;90.82;98444.31;5046376;28;20230;-65
2023/03/16 03:04:31;;;;;;;0.57;0.57;;;;;;;8.40;90.54;98464.63;5041744;28;20217;-65
2023/03/16 03:07:03;;;;;;;0.80;0.80;;;;;;;8.33;90.79;98452.16;5041820;28;20200;-66
2023/03/16 03:09:31;;;;;;;0.60;0.60;;;;;;;8.36;90.64;98465.66;5046273;28;20291;-65
2023/03/16 03:11:57;;;;;;;0.63;0.63;;;;;;;8.29;91.14;98460.81;5042962;28;20204;-65
2023/03/16 03:14:27;;;;;;;0.50;0.50;;;;;;;8.31;90.95;98470.06;5051556;28;20205;-65
2023/03/16 03:16:54;;;;;;;0.70;0.70;;;;;;;8.00;90.52;98422.69;5049198;28;20197;-65
2023/03/16 03:19:21;;;;;;;0.60;0.60;;;;;;;8.21;91.22;98481.47;5033791;28;20209;-64
2023/03/16 03:21:50;;;;;;;0.60;0.60;;;;;;;8.20;90.72;98487.47;5037598;28;20205;-64
2023/03/16 03:24:17;;;;;;;0.80;0.80;;;;;;;8.16;90.93;98490.19;5049967;28;20212;-64
2023/03/16 03:26:44;;;;;;;0.60;0.60;;;;;;;8.16;90.82;98491.03;5053179;28;20212;-65
2023/03/16 03:29:11;;;;;;;0.60;0.60;;;;;;;8.09;90.83;98499.75;5048673;28;20227;-65
2023/03/16 03:31:38;;;;;;;0.50;0.50;;;;;;;8.07;91.15;98499.00;5033710;28;20240;-65
2023/03/16 03:34:05;;;;;;;0.60;0.60;;;;;;;8.04;91.03;98511.88;5032996;28;20217;-64
2023/03/16 03:36:32;;;;;;;0.57;0.57;;;;;;;8.02;91.11;98502.56;5032725;28;20593;-65
2023/03/16 03:39:04;;;;;;;0.60;0.60;;;;;;;7.99;91.56;98503.50;5033260;28;20296;-66
2023/03/16 03:41:31;;;;;;;1.77;1.77;;;;;;;7.90;91.32;98511.50;5032735;28;20201;-65
2023/03/16 03:43:59;;;;;;;0.50;0.50;;;;;;;7.87;92.09;98509.88;5032814;28;20209;-65
2023/03/16 03:46:26;;;;;;;0.60;0.60;;;;;;;7.86;92.11;98512.47;5031904;28;20678;-64
2023/03/16 03:48:53;;;;;;;0.60;0.60;;;;;;;7.84;92.07;98517.63;5032524;28;20696;-65
2023/03/16 03:51:20;;;;;;;0.70;0.70;;;;;;;7.80;92.16;98517.78;5032986;28;20631;-65
2023/03/16 03:53:47;;;;;;;0.50;0.50;;;;;;;7.80;91.90;98530.53;5032461;28;20239;-65
2023/03/16 03:56:15;;;;;;;0.50;0.50;;;;;;;7.81;91.77;98525.41;5032498;28;20205;-65
2023/03/16 03:58:42;;;;;;;0.50;0.50;;;;;;;7.78;91.94;98529.75;5032555;28;20205;-65
2023/03/16 04:01:08;;;;;;;0.50;0.50;;;;;;;7.75;91.51;98534.97;5032574;28;20209;-65
2023/03/16 04:03:35;;;;;;;0.50;0.50;;;;;;;7.71;91.95;98535.94;5032522;28;20636;-65
2023/03/16 04:06:02;;;;;;;0.60;0.60;;;;;;;7.70;91.66;98534.25;5028000;28;20222;-65
2023/03/16 04:08:29;;;;;;;0.57;0.57;;;;;;;7.64;92.36;98537.03;5027573;28;20206;-65
2023/03/16 04:10:56;;;;;;;0.50;0.50;;;;;;;7.61;91.97;98530.31;5032146;28;20205;-65
2023/03/16 04:13:24;;;;;;;0.63;0.63;;;;;;;7.59;92.36;98529.53;5028199;28;20202;-64
2023/03/16 04:15:56;;;;;;;0.57;0.57;;;;;;;7.56;92.18;98533.91;5031009;28;20201;-64
2023/03/16 04:18:23;;;;;;;0.53;0.53;;;;;;;7.56;92.08;98539.00;5032447;28;20205;-64
2023/03/16 04:20:51;;;;;;;0.50;0.50;;;;;;;7.53;91.95;98534.00;5031983;28;20201;-64
2023/03/16 04:23:18;;;;;;;0.60;0.60;;;;;;;7.50;91.77;98537.44;5032212;28;20219;-64
2023/03/16 04:25:45;;;;;;;0.50;0.50;;;;;;;7.43;92.12;98535.16;5032008;28;20754;-64
2023/03/16 04:28:12;;;;;;;0.80;0.80;;;;;;;7.45;92.11;98546.13;5031688;28;20201;-65
2023/03/16 04:30:41;;;;;;;0.70;0.70;;;;;;;7.43;91.64;98547.91;5037006;28;20232;-64
2023/03/16 04:33:08;;;;;;;0.60;0.60;;;;;;;7.38;91.45;98548.88;5041207;28;20209;-65
2023/03/16 04:35:35;;;;;;;0.53;0.53;;;;;;;7.35;91.42;98551.53;5037663;28;20188;-64
2023/03/16 04:38:02;;;;;;;1.40;1.40;;;;;;;7.16;91.62;98530.03;5051707;28;20743;-65
2023/03/16 04:40:29;;;;;;;0.60;0.60;;;;;;;7.29;91.44;98540.69;5041795;28;20200;-65
2023/03/16 04:42:56;;;;;;;0.57;0.57;;;;;;;7.28;91.15;98550.03;5032848;28;20601;-64
2023/03/16 04:45:23;;;;;;;0.77;0.77;;;;;;;7.24;90.53;98548.44;5031560;28;20767;-64
2023/03/16 04:47:51;;;;;;;0.60;0.60;;;;;;;7.20;90.88;98554.53;5046857;28;20201;-65
2023/03/16 04:50:18;;;;;;;0.60;0.60;;;;;;;6.97;90.83;98523.81;5051517;28;20212;-65
2023/03/16 04:52:46;;;;;;;0.50;0.50;;;;;;;7.20;90.79;98571.53;5035055;28;20200;-65
2023/03/16 04:55:13;;;;;;;0.53;0.53;;;;;;;7.20;90.10;98580.03;5051458;28;20230;-65
2023/03/16 04:57:40;;;;;;;0.60;0.60;;;;;;;7.16;90.64;98578.44;5051461;28;20201;-65
2023/03/16 05:00:17;;;;;;;0.70;0.70;;;;;;;7.20;90.24;98582.59;5043175;28;20204;-64
2023/03/16 05:02:44;;;;;;;0.60;0.60;;;;;;;7.21;89.33;98588.50;5039653;28;20672;-64
2023/03/16 05:05:12;;;;;;;0.60;0.60;;;;;;;7.24;88.88;98590.94;5038322;28;20680;-65
2023/03/16 05:07:40;;;;;;;0.60;0.60;;;;;;;7.18;88.73;98601.31;5045135;28;20232;-64
2023/03/16 05:10:08;;;;;;;0.40;0.40;;;;;;;7.16;88.45;98610.75;5049999;28;20223;-65
2023/03/16 05:12:34;;;;;;;0.50;0.50;;;;;;;7.04;88.89;98586.47;5033235;28;20205;-65
2023/03/16 05:15:01;;;;;;;0.70;0.70;;;;;;;7.15;88.55;98614.16;5034153;28;20209;-64
2023/03/16 05:17:28;;;;;;;0.57;0.57;;;;;;;7.13;88.17;98621.88;5034319;28;20205;-65
2023/03/16 05:19:55;;;;;;;0.60;0.60;;;;;;;7.13;87.99;98626.97;5036418;28;20205;-65
2023/03/16 05:22:23;;;;;;;0.50;0.50;;;;;;;7.15;88.43;98625.19;5031626;28;20695;-64
2023/03/16 05:24:50;;;;;;;0.50;0.50;;;;;;;7.15;87.67;98635.38;5039505;28;20197;-65
2023/03/16 05:27:17;;;;;;;0.50;0.50;;;;;;;7.13;87.44;98634.59;5048420;28;20196;-65
2023/03/16 05:29:44;;;;;;;0.60;0.60;;;;;;;7.13;87.70;98632.06;5050963;28;20201;-64
2023/03/16 05:32:11;;;;;;;0.50;0.50;;;;;;;7.17;86.68;98638.72;5031462;28;20237;-65
2023/03/16 05:34:38;;;;;;;0.60;0.60;;;;;;;7.18;86.51;98639.56;5031320;28;20205;-66
2023/03/16 05:37:05;;;;;;;0.60;0.60;;;;;;;7.14;86.69;98636.25;5031424;28;20763;-65
2023/03/16 05:39:34;;;;;;;0.50;0.50;;;;;;;7.14;86.81;98649.00;5031079;28;20256;-64
2023/03/16 05:42:00;;;;;;;0.50;0.50;;;;;;;7.19;86.21;98641.25;5031259;28;20228;-64
2023/03/16 05:44:27;;;;;;;0.60;0.60;;;;;;;7.14;85.80;98649.00;5031994;28;20262;-65
2023/03/16 05:46:54;;;;;;;0.60;0.60;;;;;;;7.14;85.82;98651.56;5030982;28;20221;-64
2023/03/16 05:49:21;;;;;;;0.60;0.60;;;;;;;7.13;85.62;98652.44;5031320;28;20673;-65
2023/03/16 05:51:48;;;;;;;0.50;0.50;;;;;;;7.13;86.02;98657.53;5031108;28;20201;-65
2023/03/16 05:54:15;;;;;;;0.60;0.60;;;;;;;7.06;85.69;98650.94;5014924;28;20198;-64
2023/03/16 05:56:43;;;;;;;0.47;0.47;;;;;;;7.14;85.56;98668.59;5028561;28;20201;-64
2023/03/16 05:59:10;;;;;;;0.50;0.50;;;;;;;7.13;85.29;98666.91;5031155;28;20212;-64
2023/03/16 06:01:38;;;;;;;0.50;0.50;;;;;;;7.13;85.45;98661.81;5031061;28;20202;-65
2023/03/16 06:04:06;;;;;;;0.60;0.60;;;;;;;7.17;84.67;98668.50;5030952;28;20205;-64
2023/03/16 06:06:33;;;;;;;0.60;0.60;;;;;;;7.14;84.49;98679.59;5029251;28;20771;-65
2023/03/16 06:09:15;;;;;;;0.50;0.50;;;;;;;7.13;84.72;98677.94;5025897;28;20194;-66
2023/03/16 06:11:43;;;;;;;0.50;0.50;;;;;;;7.15;84.68;98677.88;5034000;28;20205;-67
2023/03/16 06:14:09;;;;;;;0.60;0.60;;;;;;;7.13;84.48;98677.94;5032628;28;20193;-62
2023/03/16 06:16:36;;;;;;;0.80;0.80;;;;;;;7.17;84.12;98689.69;5033620;28;20198;-61
2023/03/16 06:19:03;;;;;;;0.50;0.50;;;;;;;7.19;83.92;98689.66;5033745;28;20201;-64
2023/03/16 06:21:30;;;;;;;0.60;0.60;;;;;;;7.18;83.59;98693.06;5034544;28;20197;-63
2023/03/16 06:23:56;;;;;;;0.50;0.50;;;;;;;7.18;84.03;98701.56;5026272;28;20260;-64
2023/03/16 06:26:23;;;;;;;0.60;0.60;;;;;;;7.20;83.78;98704.94;5025200;28;20217;-64
2023/03/16 06:28:51;;;;;;;0.60;0.60;;;;;;;7.24;83.03;98706.50;5033909;28;20272;-64
2023/03/16 06:31:18;;;;;;;0.50;0.50;;;;;;;7.23;83.33;98706.56;5042542;28;20224;-63
2023/03/16 06:33:45;;;;;;;1.17;1.17;;;;;;;7.24;83.53;98720.94;5038446;28;20632;-64
2023/03/16 06:36:12;;;;;;;0.90;0.90;;;;;;;7.22;83.03;98718.47;5036157;28;20201;-64
2023/03/16 06:38:39;;;;;;;0.50;0.50;;;;;;;7.25;82.70;98722.63;5054587;28;20208;-64
2023/03/16 06:41:05;;;;;;;0.60;0.60;;;;;;;7.23;82.08;98724.41;5053849;28;20211;-64
2023/03/16 06:43:32;;;;;;;0.50;0.50;;;;;;;7.18;82.35;98718.56;5041246;28;20198;-63
2023/03/16 06:46:02;;;;;;;0.60;0.60;;;;;;;7.28;82.61;98728.47;5038950;28;20214;-64
2023/03/16 06:48:29;;;;;;;0.70;0.70;;;;;;;7.25;82.37;98728.56;5034114;28;20216;-65
2023/03/16 06:50:55;;;;;;;0.60;0.60;;;;;;;7.28;82.18;98737.84;5033930;28;20644;-65
2023/03/16 06:53:22;;;;;;;0.50;0.50;;;;;;;7.27;82.25;98746.38;5034400;28;20206;-65
2023/03/16 06:55:50;;;;;;;0.50;0.50;;;;;;;7.27;81.81;98749.75;5047564;28;20288;-65
2023/03/16 06:58:16;;;;;;;0.60;0.60;;;;;;;7.28;81.46;98748.03;5043717;28;20197;-65
2023/03/16 07:00:43;;;;;;;0.70;0.70;;;;;;;7.32;81.76;98759.81;5036767;28;20252;-63
2023/03/16 07:03:11;;;;;;;0.70;0.70;;;;;;;7.40;81.03;98763.81;5037798;28;20303;-64
2023/03/16 07:05:38;;;;;;;0.57;0.57;;;;;;;7.41;80.45;98764.66;5047305;28;20213;-64
2023/03/16 07:08:05;;;;;;;0.80;0.80;;;;;;;7.39;80.94;98769.81;5046682;28;20715;-64
2023/03/16 07:10:33;;;;;;;0.63;0.63;;;;;;;7.39;80.34;98767.28;5044921;28;20197;-63
2023/03/16 07:12:59;;;;;;;0.70;0.70;;;;;;;7.40;80.86;98766.38;5033408;28;20216;-63
2023/03/16 07:15:26;;;;;;;0.70;0.70;;;;;;;7.40;80.48;98768.91;5051243;28;20208;-61
2023/03/16 07:17:53;;;;;;;0.53;0.53;;;;;;;7.42;80.04;98773.16;5038691;28;20251;-62
2023/03/16 07:20:22;;;;;;;0.70;0.70;;;;;;;7.43;80.63;98777.38;5033716;28;20698;-63
2023/03/16 07:22:49;;;;;;;0.70;0.70;;;;;;;7.45;79.63;98778.16;5033310;28;20267;-64
2023/03/16 07:25:15;;;;;;;0.57;0.57;;;;;;;7.47;80.31;98781.50;5040422;28;20192;-64
2023/03/16 07:27:44;;;;;;;0.60;0.60;;;;;;;7.46;80.41;98777.31;5028433;28;20643;-64
2023/03/16 07:30:13;;;;;;;0.60;0.60;;;;;;;7.55;80.46;98784.69;5013375;28;20220;-64
2023/03/16 07:32:40;;;;;;;0.60;0.60;;;;;;;7.57;79.48;98786.31;5013511;28;20206;-64
2023/03/16 07:35:07;;;;;;;0.50;0.50;;;;;;;7.63;79.43;98785.28;5051548;28;20223;-64
2023/03/16 07:37:36;;;;;;;0.60;0.60;;;;;;;7.55;79.86;98771.94;5037743;28;20197;-72
2023/03/16 07:40:04;;;;;;;0.60;0.60;;;;;;;7.69;79.78;98790.25;5031357;28;20201;-65
2023/03/16 07:42:30;;;;;;;0.60;0.60;;;;;;;7.73;80.04;98789.25;5039894;28;20685;-65
2023/03/16 07:44:57;;;;;;;0.70;0.70;;;;;;;7.81;79.12;98784.78;5037688;28;20207;-66
2023/03/16 07:47:24;;;;;;;0.50;0.50;;;;;;;7.81;78.03;98787.34;5044414;28;20216;-66
2023/03/16 07:49:51;;;;;;;0.50;0.50;;;;;;;7.88;78.67;98783.75;5049751;28;20204;-65
2023/03/16 07:52:18;;;;;;;0.50;0.50;;;;;;;7.95;79.09;98785.22;5037593;28;20259;-65
2023/03/16 07:54:47;;;;;;;0.60;0.60;;;;;;;8.02;78.58;98783.31;5040384;28;20588;-66
2023/03/16 07:57:14;;;;;;;0.60;0.60;;;;;;;8.10;78.41;98792.44;5045758;28;20200;-66
2023/03/16 07:59:41;;;;;;;0.40;0.40;;;;;;;8.17;77.87;98791.38;5048199;28;20205;-64
2023/03/16 08:02:12;;;;;;;0.60;0.60;;;;;;;8.19;77.75;98792.16;5051617;28;20295;-64
2023/03/16 08:04:41;;;;;;;0.43;0.43;;;;;;;8.24;78.20;98800.50;5032444;28;20205;-65
2023/03/16 08:07:08;;;;;;;0.43;0.43;;;;;;;8.31;77.47;98802.00;5049263;28;20307;-65
2023/03/16 08:09:35;;;;;;;0.50;0.50;;;;;;;8.38;77.92;98808.63;5052341;28;20211;-65
2023/03/16 08:12:03;;;;;;;0.70;0.70;;;;;;;8.49;77.91;98804.91;5042205;28;20205;-64
2023/03/16 08:14:32;;;;;;;0.60;0.60;;;;;;;8.52;77.40;98804.78;5032551;28;20247;-64
2023/03/16 08:16:59;;;;;;;0.50;0.50;;;;;;;8.59;76.81;98801.19;5032133;28;20672;-66
2023/03/16 08:19:26;;;;;;;0.50;0.50;;;;;;;8.68;76.94;98808.53;5033522;28;20205;-64
2023/03/16 08:21:53;;;;;;;0.60;0.60;;;;;;;8.76;76.96;98801.44;5040251;28;20197;-65
2023/03/16 08:24:21;;;;;;;0.63;0.63;;;;;;;8.84;75.40;98802.06;5033392;28;20205;-64
2023/03/16 08:26:48;;;;;;;0.50;0.50;;;;;;;8.92;75.10;98805.16;5040535;28;20220;-64
2023/03/16 08:29:17;;;;;;;0.50;0.50;;;;;;;8.90;74.71;98791.63;5044664;28;20201;-65
2023/03/16 08:31:44;;;;;;;0.50;0.50;;;;;;;9.02;74.54;98810.81;5047100;28;20228;-64
2023/03/16 08:34:11;;;;;;;0.50;0.50;;;;;;;9.09;74.07;98810.56;5041852;28;20219;-70
2023/03/16 08:36:38;;;;;;;0.50;0.50;;;;;;;9.17;74.09;98810.31;5032180;28;20258;-65
2023/03/16 08:39:05;;;;;;;0.50;0.50;;;;;;;9.16;72.69;98809.47;5031803;28;20705;-64
2023/03/16 08:41:33;;;;;;;0.60;0.60;;;;;;;9.26;73.27;98818.53;5048524;28;20580;-65
2023/03/16 08:44:00;;;;;;;0.40;0.40;;;;;;;9.32;72.82;98825.13;5038838;28;20209;-65
2023/03/16 08:46:29;;;;;;;0.50;0.50;;;;;;;9.37;72.75;98834.31;5034322;28;20582;-65
2023/03/16 08:48:56;;;;;;;0.60;0.60;;;;;;;9.41;73.20;98824.81;5049610;28;20196;-64
2023/03/16 08:51:23;;;;;;;0.60;0.60;;;;;;;9.44;72.80;98825.53;5042940;28;20200;-64
2023/03/16 08:53:51;;;;;;;0.50;0.50;;;;;;;9.58;72.39;98826.78;5044749;28;20200;-65
2023/03/16 08:56:18;;;;;;;0.60;0.60;;;;;;;9.67;72.69;98831.56;5037865;28;20229;-64
2023/03/16 08:58:45;;;;;;;0.50;0.50;;;;;;;9.72;72.32;98825.44;5044324;28;20207;-65
2023/03/16 09:01:13;;;;;;;0.60;0.60;;;;;;;9.80;71.40;98830.25;5044944;28;20731;-65
2023/03/16 09:03:41;;;;;;;0.50;0.50;;;;;;;9.86;70.95;98827.47;5043687;28;20196;-64
2023/03/16 09:06:12;;;;;;;0.50;0.50;;;;;;;9.85;70.54;98826.66;5043177;28;20226;-64
2023/03/16 09:08:39;;;;;;;0.50;0.50;;;;;;;9.97;71.53;98831.31;5051380;28;20215;-64
2023/03/16 09:11:08;;;;;;;0.60;0.60;;;;;;;10.04;69.83;98837.06;5051778;28;20569;-64
2023/03/16 09:13:37;;;;;;;0.40;0.40;;;;;;;10.08;69.25;98837.78;5046519;28;20201;-65
2023/03/16 09:16:04;;;;;;;0.60;0.60;;;;;;;10.10;69.20;98836.81;5031571;28;20259;-66
2023/03/16 09:18:31;;;;;;;0.60;0.60;;;;;;;10.21;68.12;98839.03;5042766;28;20204;-65
2023/03/16 09:21:01;;;;;;;0.50;0.50;;;;;;;10.27;68.30;98839.63;5036225;28;20755;-65
2023/03/16 09:23:28;;;;;;;0.63;0.63;;;;;;;10.39;68.89;98828.91;5044232;28;20193;-66
2023/03/16 09:25:58;;;;;;;0.50;0.50;;;;;;;10.50;67.08;98834.44;5027369;28;20205;-68
2023/03/16 09:28:26;;;;;;;0.40;0.40;;;;;;;10.60;66.97;98841.78;5029557;28;20696;-68
2023/03/16 09:30:53;;;;;;;0.50;0.50;;;;;;;10.69;65.87;98836.28;5029184;28;20609;-68
2023/03/16 09:33:20;;;;;;;0.40;0.40;;;;;;;10.73;66.25;98837.81;5030499;28;20203;-68
2023/03/16 09:35:48;;;;;;;0.50;0.50;;;;;;;10.82;66.52;98842.59;5026447;28;20206;-67
2023/03/16 09:38:17;;;;;;;0.60;0.60;;;;;;;11.06;67.14;98846.72;5020377;28;20612;-68
2023/03/16 09:40:46;;;;;;;0.50;0.50;;;;;;;11.16;65.14;98848.03;5020886;28;20206;-67
2023/03/16 09:43:34;;;;;;;0.50;0.50;;;;;;;11.20;64.17;98831.63;5024644;28;20255;-68
2023/03/16 09:46:09;;;;;;;0.30;0.30;;;;;;;11.38;63.68;98846.22;5020900;28;20255;-68
2023/03/16 09:48:38;;;;;;;0.40;0.40;;;;;;;11.54;61.41;98844.69;5025253;28;20737;-68
2023/03/16 09:51:08;;;;;;;0.40;0.40;;;;;;;11.70;61.41;98850.00;5020119;28;20213;-68
2023/03/16 09:53:39;;;;;;;0.60;0.60;;;;;;;11.72;61.18;98847.41;5027035;28;20228;-68
2023/03/16 09:56:10;;;;;;;0.70;0.70;;;;;;;11.80;60.56;98865.84;5027886;28;20739;-68
2023/03/16 09:58:37;;;;;;;0.50;0.50;;;;;;;11.86;60.94;98852.75;5026356;28;20287;-68
2023/03/16 10:01:14;;;;;;;0.40;0.40;;;;;;;11.90;59.46;98860.25;5023841;28;20205;-61
2023/03/16 10:03:59;;;;;;;0.30;0.30;;;;;;;11.75;58.80;98847.25;5027993;28;20228;-63
2023/03/16 10:06:27;;;;;;;0.40;0.40;;;;;;;11.78;59.55;98862.53;5028128;28;20600;-61
2023/03/16 10:09:05;;;;;;;0.40;0.40;;;;;;;11.95;59.19;98858.34;5026242;28;20206;-62
2023/03/16 10:11:38;;;;;;;0.50;0.50;;;;;;;11.93;58.96;98861.84;5027392;28;20562;-63
2023/03/16 10:14:16;;;;;;;0.57;0.57;;;;;;;11.99;58.75;98856.44;5025884;28;20234;-62
2023/03/16 10:16:49;;;;;;;0.40;0.40;;;;;;;12.06;59.39;98850.13;5032490;28;20669;-63
2023/03/16 10:19:20;;;;;;;0.43;0.43;;;;;;;12.12;57.68;98851.63;5029727;28;20208;-62
2023/03/16 10:21:49;;;;;;;0.50;0.50;;;;;;;12.22;58.71;98843.41;5013877;28;20255;-65
2023/03/16 10:24:27;;;;;;;0.40;0.40;;;;;;;12.35;59.13;98848.81;5034372;28;20685;-66
2023/03/16 10:26:58;;;;;;;0.70;0.70;;;;;;;12.46;58.48;98844.84;5034190;28;20224;-66
2023/03/16 10:32:48;;;;;;;0.40;0.40;;;;;;;12.38;57.85;98852.06;5032906;28;20304;-62
2023/03/16 10:35:28;;;;;;;0.50;0.50;;;;;;;12.26;57.32;98847.50;5018006;28;20297;-62
2023/03/16 10:37:56;;;;;;;0.57;0.57;;;;;;;12.20;57.38;98847.78;5020472;28;20197;-63
2023/03/16 10:40:25;;;;;;;0.50;0.50;;;;;;;12.25;57.38;98848.38;5018091;28;20288;-62
2023/03/16 10:42:52;;;;;;;0.53;0.53;;;;;;;12.19;57.67;98838.41;5020456;28;20201;-62
2023/03/16 10:45:27;;;;;;;0.53;0.53;;;;;;;12.20;58.25;98840.06;5015778;28;20205;-62
2023/03/16 10:47:54;;;;;;;0.60;0.60;;;;;;;12.27;58.69;98846.59;5015943;28;20600;-62
2023/03/16 10:50:26;;;;;;;0.50;0.50;;;;;;;12.34;59.16;98842.81;5014677;28;20288;-61
2023/03/16 10:52:55;;;;;;;0.50;0.50;;;;;;;12.26;57.04;98844.94;5017222;28;20443;-62
2023/03/16 10:55:29;;;;;;;0.40;0.40;;;;;;;12.13;58.28;98842.97;5018151;28;20359;-62
2023/03/16 10:57:56;;;;;;;0.43;0.43;;;;;;;12.09;57.85;98837.16;5025267;28;20283;-62
2023/03/16 11:00:27;;;;;;;0.40;0.40;;;;;;;11.99;57.89;98835.88;5028805;28;20259;-61
2023/03/16 11:02:56;;;;;;;0.50;0.50;;;;;;;12.12;58.67;98849.84;5028960;28;20205;-62
2023/03/16 11:05:29;;;;;;;0.40;0.40;;;;;;;11.93;58.36;98834.44;5027987;28;20205;-61
2023/03/16 11:08:00;;;;;;;0.57;0.57;;;;;;;12.08;59.16;98845.78;5026314;28;20229;-63
2023/03/16 11:10:34;;;;;;;0.52;0.52;;;;;;;12.00;58.50;98837.56;5022563;28;20441;-66
2023/03/16 11:13:11;;;;;;;0.43;0.43;;;;;;;12.11;59.27;98835.34;5032387;28;20231;-66
2023/03/16 11:15:45;;;;;;;0.47;0.47;;;;;;;12.21;58.80;98841.75;5029945;28;20212;-66
2023/03/16 11:18:25;;;;;;;0.40;0.40;;;;;;;12.18;58.32;98839.28;5026769;28;20202;-66
2023/03/16 11:20:54;;;;;;;0.70;0.70;;;;;;;12.19;58.15;98835.81;5029078;28;20663;-66
2023/03/16 11:23:29;;;;;;;0.60;0.60;;;;;;;12.20;58.06;98840.06;5022840;28;20202;-66
2023/03/16 11:26:01;;;;;;;0.70;0.70;;;;;;;12.26;58.46;98839.78;5023550;28;20311;-66
2023/03/16 11:28:36;;;;;;;0.40;0.40;;;;;;;12.13;58.42;98813.00;5024905;28;20228;-66
2023/03/16 11:31:13;;;;;;;0.60;0.60;;;;;;;12.29;58.23;98838.81;5026289;28;20286;-66
2023/03/16 11:33:40;;;;;;;0.50;0.50;;;;;;;12.18;57.60;98826.44;5036824;28;20352;-66
2023/03/16 11:36:26;;;;;;;0.40;0.40;;;;;;;12.35;59.06;98831.66;5033734;28;20255;-66
2023/03/16 11:39:04;;;;;;;0.53;0.53;;;;;;;12.45;57.94;98837.19;5035383;28;20240;-66
2023/03/16 11:41:44;;;;;;;0.53;0.53;;;;;;;12.40;57.66;98837.44;5038952;28;20207;-66
2023/03/16 11:44:20;;;;;;;0.57;0.57;;;;;;;12.40;57.30;98839.16;5044363;28;20198;-66
2023/03/16 11:46:57;;;;;;;0.50;0.50;;;;;;;12.33;56.52;98836.03;5037229;28;20668;-66
2023/03/16 11:49:48;;;;;;;0.47;0.47;;;;;;;12.40;58.43;98822.00;5035070;28;20677;-66
2023/03/16 11:52:22;;;;;;;0.50;0.50;;;;;;;12.57;56.82;98840.03;5040526;28;20197;-66
2023/03/16 11:55:03;;;;;;;0.50;0.50;;;;;;;12.54;56.72;98847.03;5031467;28;20696;-66